sensor_id;sensor_type;location;lat;lon;timestamp;temperature;humidity
5802;DHT22;2927;49.366;8.530;2023-11-19T00:02:10;8.40;99.90
5802;DHT22;2927;49.366;8.530;2023-11-19T00:04:38;8.50;99.90
5802;DHT22;2927;49.366;8.530;2023-11-19T00:07:05;8.50;99.90
5802;DHT22;2927;49.366;8.530;2023-11-19T00:09:35;8.50;99.90
5802;DHT22;2927;49.366;8.530;2023-11-19T00:12:03;8.50;99.90
5802;DHT22;2927;49.366;8.530;2023-11-19T00:14:29;8.50;99.90
5802;DHT22;2927;49.366;8.530;2023-11-19T00:16:55;8.50;99.90
5802;DHT22;2927;49.366;8.530;2023-11-19T00:19:21;8.50;99.90
5802;DHT22;2927;49.366;8.530;2023-11-19T00:21:47;8.50;99.90
5802;DHT22;2927;49.366;8.530;2023-11-19T00:24:13;8.50;99.90
5802;DHT22;2927;49.366;8.530;2023-11-19T00:26:41;8.50;99.90
5802;DHT22;2927;49.366;8.530;2023-11-19T00:29:07;8.50;99.90
5802;DHT22;2927;49.366;8.530;2023-11-19T00:31:32;8.50;99.90
5802;DHT22;2927;49.366;8.530;2023-11-19T00:33:58;8.60;99.90
5802;DHT22;2927;49.366;8.530;2023-11-19T00:36:24;8.60;99.90
5802;DHT22;2927;49.366;8.530;2023-11-19T00:38:50;8.50;99.90
5802;DHT22;2927;49.366;8.530;2023-11-19T00:41:16;8.50;99.90
5802;DHT22;2927;49.366;8.530;2023-11-19T00:43:44;8.60;99.90
5802;DHT22;2927;49.366;8.530;2023-11-19T00:46:10;8.60;99.90
5802;DHT22;2927;49.366;8.530;2023-11-19T00:48:39;8.60;99.90
5802;DHT22;2927;49.366;8.530;2023-11-19T00:51:05;8.50;99.90
5802;DHT22;2927;49.366;8.530;2023-11-19T00:53:31;8.60;99.90
5802;DHT22;2927;49.366;8.530;2023-11-19T00:55:57;8.60;99.90
5802;DHT22;2927;49.366;8.530;2023-11-19T00:58:23;8.60;99.90
5802;DHT22;2927;49.366;8.530;2023-11-19T01:00:49;8.60;99.90
5802;DHT22;2927;49.366;8.530;2023-11-19T01:03:14;8.60;99.90
5802;DHT22;2927;49.366;8.530;2023-11-19T01:05:41;8.60;99.90
5802;DHT22;2927;49.366;8.530;2023-11-19T01:08:06;8.70;99.90
5802;DHT22;2927;49.366;8.530;2023-11-19T01:10:32;8.70;99.90
5802;DHT22;2927;49.366;8.530;2023-11-19T01:12:58;8.70;99.90
5802;DHT22;2927;49.366;8.530;2023-11-19T01:15:23;8.70;99.90
5802;DHT22;2927;49.366;8.530;2023-11-19T01:17:49;8.70;99.90
5802;DHT22;2927;49.366;8.530;2023-11-19T01:20:16;8.70;99.90
5802;DHT22;2927;49.366;8.530;2023-11-19T01:22:41;8.70;99.90
5802;DHT22;2927;49.366;8.530;2023-11-19T01:25:07;8.70;99.90
5802;DHT22;2927;49.366;8.530;2023-11-19T01:27:33;8.70;99.90
5802;DHT22;2927;49.366;8.530;2023-11-19T01:30:01;8.70;99.90
5802;DHT22;2927;49.366;8.530;2023-11-19T01:32:31;8.70;99.90
5802;DHT22;2927;49.366;8.530;2023-11-19T01:34:57;8.80;99.90
5802;DHT22;2927;49.366;8.530;2023-11-19T01:37:23;8.80;99.90
5802;DHT22;2927;49.366;8.530;2023-11-19T01:39:49;8.80;99.90
5802;DHT22;2927;49.366;8.530;2023-11-19T01:42:14;8.80;99.90
5802;DHT22;2927;49.366;8.530;2023-11-19T01:44:41;8.80;99.90
5802;DHT22;2927;49.366;8.530;2023-11-19T01:47:07;8.80;99.90
5802;DHT22;2927;49.366;8.530;2023-11-19T01:49:34;8.80;99.90
5802;DHT22;2927;49.366;8.530;2023-11-19T01:52:00;8.90;99.90
5802;DHT22;2927;49.366;8.530;2023-11-19T01:54:27;8.90;99.90
5802;DHT22;2927;49.366;8.530;2023-11-19T01:56:56;8.90;99.90
5802;DHT22;2927;49.366;8.530;2023-11-19T01:59:23;8.90;99.90
5802;DHT22;2927;49.366;8.530;2023-11-19T02:01:53;8.90;99.90
5802;DHT22;2927;49.366;8.530;2023-11-19T02:04:19;9.00;99.90
5802;DHT22;2927;49.366;8.530;2023-11-19T02:06:48;9.00;99.90
5802;DHT22;2927;49.366;8.530;2023-11-19T02:09:15;9.00;99.90
5802;DHT22;2927;49.366;8.530;2023-11-19T02:11:45;9.00;99.90
5802;DHT22;2927;49.366;8.530;2023-11-19T02:14:10;9.10;99.90
5802;DHT22;2927;49.366;8.530;2023-11-19T02:16:36;9.10;99.90
5802;DHT22;2927;49.366;8.530;2023-11-19T02:19:02;9.10;99.90
5802;DHT22;2927;49.366;8.530;2023-11-19T02:21:28;9.10;99.90
5802;DHT22;2927;49.366;8.530;2023-11-19T02:23:54;9.10;99.90
5802;DHT22;2927;49.366;8.530;2023-11-19T02:26:39;9.10;99.90
5802;DHT22;2927;49.366;8.530;2023-11-19T02:29:05;9.10;99.90
5802;DHT22;2927;49.366;8.530;2023-11-19T02:31:32;9.10;99.90
5802;DHT22;2927;49.366;8.530;2023-11-19T02:33:57;9.20;99.90
5802;DHT22;2927;49.366;8.530;2023-11-19T02:36:25;9.20;99.90
5802;DHT22;2927;49.366;8.530;2023-11-19T02:38:51;9.20;99.90
5802;DHT22;2927;49.366;8.530;2023-11-19T02:41:16;9.20;99.90
5802;DHT22;2927;49.366;8.530;2023-11-19T02:43:42;9.20;99.90
5802;DHT22;2927;49.366;8.530;2023-11-19T02:46:07;9.20;99.90
5802;DHT22;2927;49.366;8.530;2023-11-19T02:48:37;9.20;99.90
5802;DHT22;2927;49.366;8.530;2023-11-19T02:51:03;9.20;99.90
5802;DHT22;2927;49.366;8.530;2023-11-19T02:53:29;9.30;99.90
5802;DHT22;2927;49.366;8.530;2023-11-19T02:55:55;9.30;99.90
5802;DHT22;2927;49.366;8.530;2023-11-19T02:58:31;9.30;99.90
5802;DHT22;2927;49.366;8.530;2023-11-19T03:00:57;9.30;99.90
5802;DHT22;2927;49.366;8.530;2023-11-19T03:03:26;9.30;99.90
5802;DHT22;2927;49.366;8.530;2023-11-19T03:06:06;9.30;99.90
5802;DHT22;2927;49.366;8.530;2023-11-19T03:08:35;9.40;99.90
5802;DHT22;2927;49.366;8.530;2023-11-19T03:11:01;9.40;99.90
5802;DHT22;2927;49.366;8.530;2023-11-19T03:13:27;9.40;99.90
5802;DHT22;2927;49.366;8.530;2023-11-19T03:15:53;9.40;99.90
5802;DHT22;2927;49.366;8.530;2023-11-19T03:18:19;9.40;99.90
5802;DHT22;2927;49.366;8.530;2023-11-19T03:20:46;9.50;99.90
5802;DHT22;2927;49.366;8.530;2023-11-19T03:23:12;9.50;99.90
5802;DHT22;2927;49.366;8.530;2023-11-19T03:25:38;9.60;99.90
5802;DHT22;2927;49.366;8.530;2023-11-19T03:28:04;9.60;99.90
5802;DHT22;2927;49.366;8.530;2023-11-19T03:30:30;9.60;99.90
5802;DHT22;2927;49.366;8.530;2023-11-19T03:32:59;9.60;99.90
5802;DHT22;2927;49.366;8.530;2023-11-19T03:35:28;9.60;99.90
5802;DHT22;2927;49.366;8.530;2023-11-19T03:37:54;9.60;99.90
5802;DHT22;2927;49.366;8.530;2023-11-19T03:40:19;9.70;99.90
5802;DHT22;2927;49.366;8.530;2023-11-19T03:42:46;9.70;99.90
5802;DHT22;2927;49.366;8.530;2023-11-19T03:45:11;9.70;99.90
5802;DHT22;2927;49.366;8.530;2023-11-19T03:47:37;9.70;99.90
5802;DHT22;2927;49.366;8.530;2023-11-19T03:50:03;9.70;99.90
5802;DHT22;2927;49.366;8.530;2023-11-19T03:52:29;9.70;99.90
5802;DHT22;2927;49.366;8.530;2023-11-19T03:54:55;9.70;99.90
5802;DHT22;2927;49.366;8.530;2023-11-19T03:57:23;9.80;99.90
5802;DHT22;2927;49.366;8.530;2023-11-19T03:59:50;9.80;99.90
5802;DHT22;2927;49.366;8.530;2023-11-19T04:02:16;9.80;99.90
5802;DHT22;2927;49.366;8.530;2023-11-19T04:04:42;9.80;99.90
5802;DHT22;2927;49.366;8.530;2023-11-19T04:07:08;9.80;99.90
5802;DHT22;2927;49.366;8.530;2023-11-19T04:09:33;9.90;99.90
5802;DHT22;2927;49.366;8.530;2023-11-19T04:12:00;9.90;99.90
5802;DHT22;2927;49.366;8.530;2023-11-19T04:14:26;9.90;99.90
5802;DHT22;2927;49.366;8.530;2023-11-19T04:16:51;9.90;99.90
5802;DHT22;2927;49.366;8.530;2023-11-19T04:19:18;10.00;99.90
5802;DHT22;2927;49.366;8.530;2023-11-19T04:21:43;10.00;99.90
5802;DHT22;2927;49.366;8.530;2023-11-19T04:24:09;10.00;99.90
5802;DHT22;2927;49.366;8.530;2023-11-19T04:26:42;10.00;99.90
5802;DHT22;2927;49.366;8.530;2023-11-19T04:29:13;10.00;99.90
5802;DHT22;2927;49.366;8.530;2023-11-19T04:31:40;10.10;99.90
5802;DHT22;2927;49.366;8.530;2023-11-19T04:34:06;10.10;99.90
5802;DHT22;2927;49.366;8.530;2023-11-19T04:36:33;10.10;99.90
5802;DHT22;2927;49.366;8.530;2023-11-19T04:38:59;10.10;99.90
5802;DHT22;2927;49.366;8.530;2023-11-19T04:41:25;10.20;99.90
5802;DHT22;2927;49.366;8.530;2023-11-19T04:43:53;10.20;99.90
5802;DHT22;2927;49.366;8.530;2023-11-19T04:46:18;10.20;99.90
5802;DHT22;2927;49.366;8.530;2023-11-19T04:48:44;10.20;99.90
5802;DHT22;2927;49.366;8.530;2023-11-19T04:51:10;10.20;99.90
5802;DHT22;2927;49.366;8.530;2023-11-19T04:53:35;10.30;99.90
5802;DHT22;2927;49.366;8.530;2023-11-19T04:56:06;10.30;99.90
5802;DHT22;2927;49.366;8.530;2023-11-19T04:58:32;10.30;99.90
5802;DHT22;2927;49.366;8.530;2023-11-19T05:00:58;10.40;99.90
5802;DHT22;2927;49.366;8.530;2023-11-19T05:03:23;10.40;99.90
5802;DHT22;2927;49.366;8.530;2023-11-19T05:05:49;10.40;99.90
5802;DHT22;2927;49.366;8.530;2023-11-19T05:08:14;10.40;99.90
5802;DHT22;2927;49.366;8.530;2023-11-19T05:10:40;10.40;99.90
5802;DHT22;2927;49.366;8.530;2023-11-19T05:13:05;10.50;99.90
5802;DHT22;2927;49.366;8.530;2023-11-19T05:15:31;10.50;99.90
5802;DHT22;2927;49.366;8.530;2023-11-19T05:17:56;10.50;99.90
5802;DHT22;2927;49.366;8.530;2023-11-19T05:20:22;10.50;99.90
5802;DHT22;2927;49.366;8.530;2023-11-19T05:22:48;10.50;99.90
5802;DHT22;2927;49.366;8.530;2023-11-19T05:25:14;10.60;99.90
5802;DHT22;2927;49.366;8.530;2023-11-19T05:27:39;10.60;99.90
5802;DHT22;2927;49.366;8.530;2023-11-19T05:30:05;10.60;99.90
5802;DHT22;2927;49.366;8.530;2023-11-19T05:32:36;10.70;99.90
5802;DHT22;2927;49.366;8.530;2023-11-19T05:35:01;10.70;99.90
5802;DHT22;2927;49.366;8.530;2023-11-19T05:37:27;10.60;99.90
5802;DHT22;2927;49.366;8.530;2023-11-19T05:39:53;10.70;99.90
5802;DHT22;2927;49.366;8.530;2023-11-19T05:42:18;10.80;99.90
5802;DHT22;2927;49.366;8.530;2023-11-19T05:44:44;10.80;99.90
5802;DHT22;2927;49.366;8.530;2023-11-19T05:47:09;10.80;99.90
5802;DHT22;2927;49.366;8.530;2023-11-19T05:49:35;10.80;99.90
5802;DHT22;2927;49.366;8.530;2023-11-19T05:52:00;10.80;99.90
5802;DHT22;2927;49.366;8.530;2023-11-19T05:54:28;10.80;99.90
5802;DHT22;2927;49.366;8.530;2023-11-19T05:56:54;10.90;99.90
5802;DHT22;2927;49.366;8.530;2023-11-19T05:59:20;10.90;99.90
5802;DHT22;2927;49.366;8.530;2023-11-19T06:01:45;10.90;99.90
5802;DHT22;2927;49.366;8.530;2023-11-19T06:04:11;10.90;99.90
5802;DHT22;2927;49.366;8.530;2023-11-19T06:06:37;10.90;99.90
5802;DHT22;2927;49.366;8.530;2023-11-19T06:09:03;10.90;99.90
5802;DHT22;2927;49.366;8.530;2023-11-19T06:11:29;11.00;99.90
5802;DHT22;2927;49.366;8.530;2023-11-19T06:13:55;10.90;99.90
5802;DHT22;2927;49.366;8.530;2023-11-19T06:16:21;11.00;99.90
5802;DHT22;2927;49.366;8.530;2023-11-19T06:18:47;10.90;99.90
5802;DHT22;2927;49.366;8.530;2023-11-19T06:21:12;11.00;99.90
5802;DHT22;2927;49.366;8.530;2023-11-19T06:23:38;11.00;99.90
5802;DHT22;2927;49.366;8.530;2023-11-19T06:26:04;11.00;99.90
5802;DHT22;2927;49.366;8.530;2023-11-19T06:28:31;11.10;99.90
5802;DHT22;2927;49.366;8.530;2023-11-19T06:30:56;11.10;99.90
5802;DHT22;2927;49.366;8.530;2023-11-19T06:33:24;11.20;99.90
5802;DHT22;2927;49.366;8.530;2023-11-19T06:35:50;11.20;99.90
5802;DHT22;2927;49.366;8.530;2023-11-19T06:38:15;11.20;99.90
5802;DHT22;2927;49.366;8.530;2023-11-19T06:40:41;11.20;99.90
5802;DHT22;2927;49.366;8.530;2023-11-19T06:43:06;11.20;99.90
5802;DHT22;2927;49.366;8.530;2023-11-19T06:45:34;11.20;99.90
5802;DHT22;2927;49.366;8.530;2023-11-19T06:48:03;11.20;99.90
5802;DHT22;2927;49.366;8.530;2023-11-19T06:50:32;11.20;99.90
5802;DHT22;2927;49.366;8.530;2023-11-19T06:52:58;11.20;99.90
5802;DHT22;2927;49.366;8.530;2023-11-19T06:55:24;11.20;99.90
5802;DHT22;2927;49.366;8.530;2023-11-19T06:57:49;11.20;99.90
5802;DHT22;2927;49.366;8.530;2023-11-19T07:00:15;11.20;99.90
5802;DHT22;2927;49.366;8.530;2023-11-19T07:02:41;11.30;99.90
5802;DHT22;2927;49.366;8.530;2023-11-19T07:05:06;11.30;99.90
5802;DHT22;2927;49.366;8.530;2023-11-19T07:07:34;11.30;99.90
5802;DHT22;2927;49.366;8.530;2023-11-19T07:10:01;11.30;99.90
5802;DHT22;2927;49.366;8.530;2023-11-19T07:12:27;11.30;99.90
5802;DHT22;2927;49.366;8.530;2023-11-19T07:14:53;11.30;99.90
5802;DHT22;2927;49.366;8.530;2023-11-19T07:17:20;11.30;99.90
5802;DHT22;2927;49.366;8.530;2023-11-19T07:19:46;11.30;99.90
5802;DHT22;2927;49.366;8.530;2023-11-19T07:22:12;11.40;99.90
5802;DHT22;2927;49.366;8.530;2023-11-19T07:24:41;11.40;99.90
5802;DHT22;2927;49.366;8.530;2023-11-19T07:27:07;11.40;99.90
5802;DHT22;2927;49.366;8.530;2023-11-19T07:29:34;11.40;99.90
5802;DHT22;2927;49.366;8.530;2023-11-19T07:32:00;11.40;99.90
5802;DHT22;2927;49.366;8.530;2023-11-19T07:34:27;11.40;99.90
5802;DHT22;2927;49.366;8.530;2023-11-19T07:36:53;11.50;99.90
5802;DHT22;2927;49.366;8.530;2023-11-19T07:39:19;11.50;99.90
5802;DHT22;2927;49.366;8.530;2023-11-19T07:41:46;11.40;99.90
5802;DHT22;2927;49.366;8.530;2023-11-19T07:44:11;11.40;99.90
5802;DHT22;2927;49.366;8.530;2023-11-19T07:46:37;11.40;99.90
5802;DHT22;2927;49.366;8.530;2023-11-19T07:49:03;11.50;99.90
5802;DHT22;2927;49.366;8.530;2023-11-19T07:51:28;11.50;99.90
5802;DHT22;2927;49.366;8.530;2023-11-19T07:53:54;11.50;99.90
5802;DHT22;2927;49.366;8.530;2023-11-19T07:56:19;11.50;99.90
5802;DHT22;2927;49.366;8.530;2023-11-19T07:58:45;11.50;99.90
5802;DHT22;2927;49.366;8.530;2023-11-19T08:01:10;11.50;99.90
5802;DHT22;2927;49.366;8.530;2023-11-19T08:03:36;11.50;99.90
5802;DHT22;2927;49.366;8.530;2023-11-19T08:06:03;11.50;99.90
5802;DHT22;2927;49.366;8.530;2023-11-19T08:08:28;11.50;99.90
5802;DHT22;2927;49.366;8.530;2023-11-19T08:10:58;11.50;99.90
5802;DHT22;2927;49.366;8.530;2023-11-19T08:13:24;11.50;99.90
5802;DHT22;2927;49.366;8.530;2023-11-19T08:15:50;11.60;99.90
5802;DHT22;2927;49.366;8.530;2023-11-19T08:18:16;11.50;99.90
5802;DHT22;2927;49.366;8.530;2023-11-19T08:20:43;11.60;99.90
5802;DHT22;2927;49.366;8.530;2023-11-19T08:23:10;11.60;99.90
5802;DHT22;2927;49.366;8.530;2023-11-19T08:25:35;11.70;99.90
5802;DHT22;2927;49.366;8.530;2023-11-19T08:28:01;11.70;99.90
5802;DHT22;2927;49.366;8.530;2023-11-19T08:30:28;12.60;99.90
5802;DHT22;2927;49.366;8.530;2023-11-19T08:32:54;13.20;99.90
5802;DHT22;2927;49.366;8.530;2023-11-19T08:35:19;13.90;99.90
5802;DHT22;2927;49.366;8.530;2023-11-19T08:37:46;14.60;99.90
5802;DHT22;2927;49.366;8.530;2023-11-19T08:40:11;15.60;99.90
5802;DHT22;2927;49.366;8.530;2023-11-19T08:42:38;15.70;99.90
5802;DHT22;2927;49.366;8.530;2023-11-19T08:45:05;15.10;99.90
5802;DHT22;2927;49.366;8.530;2023-11-19T08:47:30;14.40;99.90
5802;DHT22;2927;49.366;8.530;2023-11-19T08:49:56;13.80;99.90
5802;DHT22;2927;49.366;8.530;2023-11-19T08:52:21;13.60;99.90
5802;DHT22;2927;49.366;8.530;2023-11-19T08:54:47;13.90;99.90
5802;DHT22;2927;49.366;8.530;2023-11-19T08:57:13;14.20;99.90
5802;DHT22;2927;49.366;8.530;2023-11-19T08:59:38;14.80;99.90
5802;DHT22;2927;49.366;8.530;2023-11-19T09:02:05;15.70;99.90
5802;DHT22;2927;49.366;8.530;2023-11-19T09:04:31;16.20;1.00
5802;DHT22;2927;49.366;8.530;2023-11-19T09:06:58;16.40;61.00
5802;DHT22;2927;49.366;8.530;2023-11-19T09:09:23;17.30;1.00
5802;DHT22;2927;49.366;8.530;2023-11-19T09:11:50;16.80;1.00
5802;DHT22;2927;49.366;8.530;2023-11-19T09:14:15;15.60;1.00
5802;DHT22;2927;49.366;8.530;2023-11-19T09:16:41;14.80;99.90
5802;DHT22;2927;49.366;8.530;2023-11-19T09:19:07;14.40;99.90
5802;DHT22;2927;49.366;8.530;2023-11-19T09:21:32;14.30;99.90
5802;DHT22;2927;49.366;8.530;2023-11-19T09:23:59;14.20;99.90
5802;DHT22;2927;49.366;8.530;2023-11-19T09:26:25;14.30;99.90
5802;DHT22;2927;49.366;8.530;2023-11-19T09:28:51;14.30;99.90
5802;DHT22;2927;49.366;8.530;2023-11-19T09:31:17;14.30;99.90
5802;DHT22;2927;49.366;8.530;2023-11-19T09:33:43;14.40;99.90
5802;DHT22;2927;49.366;8.530;2023-11-19T09:36:10;14.60;99.90
5802;DHT22;2927;49.366;8.530;2023-11-19T09:38:39;14.70;99.90
5802;DHT22;2927;49.366;8.530;2023-11-19T09:41:05;14.80;99.90
5802;DHT22;2927;49.366;8.530;2023-11-19T09:43:36;14.80;99.90
5802;DHT22;2927;49.366;8.530;2023-11-19T09:46:05;14.80;99.90
5802;DHT22;2927;49.366;8.530;2023-11-19T09:48:35;14.80;99.90
5802;DHT22;2927;49.366;8.530;2023-11-19T09:51:03;14.90;99.90
5802;DHT22;2927;49.366;8.530;2023-11-19T09:53:29;15.00;99.90
5802;DHT22;2927;49.366;8.530;2023-11-19T09:55:55;15.30;99.90
5802;DHT22;2927;49.366;8.530;2023-11-19T09:58:21;15.40;99.90
5802;DHT22;2927;49.366;8.530;2023-11-19T10:00:48;15.30;99.90
5802;DHT22;2927;49.366;8.530;2023-11-19T10:03:14;15.20;99.90
5802;DHT22;2927;49.366;8.530;2023-11-19T10:05:40;15.10;99.90
5802;DHT22;2927;49.366;8.530;2023-11-19T10:08:08;15.10;99.90
5802;DHT22;2927;49.366;8.530;2023-11-19T10:10:34;15.30;99.90
5802;DHT22;2927;49.366;8.530;2023-11-19T10:13:00;15.10;99.90
5802;DHT22;2927;49.366;8.530;2023-11-19T10:15:26;15.10;99.90
5802;DHT22;2927;49.366;8.530;2023-11-19T10:17:55;15.00;99.90
5802;DHT22;2927;49.366;8.530;2023-11-19T10:20:21;15.00;99.90
5802;DHT22;2927;49.366;8.530;2023-11-19T10:22:47;15.10;99.90
5802;DHT22;2927;49.366;8.530;2023-11-19T10:25:22;15.20;99.90
5802;DHT22;2927;49.366;8.530;2023-11-19T10:27:49;15.30;99.90
5802;DHT22;2927;49.366;8.530;2023-11-19T10:30:25;15.50;99.90
5802;DHT22;2927;49.366;8.530;2023-11-19T10:33:13;15.40;99.90
5802;DHT22;2927;49.366;8.530;2023-11-19T10:36:12;15.40;99.90
5802;DHT22;2927;49.366;8.530;2023-11-19T10:38:39;15.50;99.90
5802;DHT22;2927;49.366;8.530;2023-11-19T10:41:05;15.40;99.90
5802;DHT22;2927;49.366;8.530;2023-11-19T10:43:31;15.50;91.90
5802;DHT22;2927;49.366;8.530;2023-11-19T10:46:10;15.50;47.80
5802;DHT22;2927;49.366;8.530;2023-11-19T10:48:36;15.50;55.60
5802;DHT22;2927;49.366;8.530;2023-11-19T10:51:05;15.50;59.10
5802;DHT22;2927;49.366;8.530;2023-11-19T10:53:38;15.50;49.70
5802;DHT22;2927;49.366;8.530;2023-11-19T10:56:10;15.40;1.00
5802;DHT22;2927;49.366;8.530;2023-11-19T10:58:36;15.50;1.00
5802;DHT22;2927;49.366;8.530;2023-11-19T11:01:21;15.60;1.00
5802;DHT22;2927;49.366;8.530;2023-11-19T11:03:51;15.70;1.00
5802;DHT22;2927;49.366;8.530;2023-11-19T11:06:18;15.60;1.00
5802;DHT22;2927;49.366;8.530;2023-11-19T11:08:46;15.40;1.00
5802;DHT22;2927;49.366;8.530;2023-11-19T11:11:13;15.30;1.00
5802;DHT22;2927;49.366;8.530;2023-11-19T11:13:42;15.20;1.00
5802;DHT22;2927;49.366;8.530;2023-11-19T11:16:08;15.10;1.00
5802;DHT22;2927;49.366;8.530;2023-11-19T11:18:34;15.10;1.00
5802;DHT22;2927;49.366;8.530;2023-11-19T11:21:06;15.10;1.00
5802;DHT22;2927;49.366;8.530;2023-11-19T11:31:48;15.30;1.00
5802;DHT22;2927;49.366;8.530;2023-11-19T11:37:46;15.80;1.00
5802;DHT22;2927;49.366;8.530;2023-11-19T11:40:17;16.00;1.00
5802;DHT22;2927;49.366;8.530;2023-11-19T11:42:47;16.00;22.80
5802;DHT22;2927;49.366;8.530;2023-11-19T11:45:14;16.10;1.00
5802;DHT22;2927;49.366;8.530;2023-11-19T11:50:13;16.10;34.30
5802;DHT22;2927;49.366;8.530;2023-11-19T11:55:51;16.10;99.90
5802;DHT22;2927;49.366;8.530;2023-11-19T11:58:18;16.10;1.00
5802;DHT22;2927;49.366;8.530;2023-11-19T12:00:43;16.10;1.00
5802;DHT22;2927;49.366;8.530;2023-11-19T12:03:11;16.10;1.00
5802;DHT22;2927;49.366;8.530;2023-11-19T12:05:45;16.10;1.00
5802;DHT22;2927;49.366;8.530;2023-11-19T12:08:14;16.10;1.00
5802;DHT22;2927;49.366;8.530;2023-11-19T12:10:51;16.10;1.00
5802;DHT22;2927;49.366;8.530;2023-11-19T12:13:18;16.10;1.00
5802;DHT22;2927;49.366;8.530;2023-11-19T12:18:30;16.10;99.90
5802;DHT22;2927;49.366;8.530;2023-11-19T12:20:56;16.20;99.90
5802;DHT22;2927;49.366;8.530;2023-11-19T12:23:25;16.30;99.90
5802;DHT22;2927;49.366;8.530;2023-11-19T12:25:50;16.40;1.00
5802;DHT22;2927;49.366;8.530;2023-11-19T12:28:16;16.30;99.90
5802;DHT22;2927;49.366;8.530;2023-11-19T12:30:43;16.20;1.00
5802;DHT22;2927;49.366;8.530;2023-11-19T12:33:10;16.10;1.00
5802;DHT22;2927;49.366;8.530;2023-11-19T12:35:43;16.10;99.90
5802;DHT22;2927;49.366;8.530;2023-11-19T12:38:25;16.10;1.00
5802;DHT22;2927;49.366;8.530;2023-11-19T12:41:07;16.20;1.00
5802;DHT22;2927;49.366;8.530;2023-11-19T12:43:32;16.10;1.00
5802;DHT22;2927;49.366;8.530;2023-11-19T12:46:16;15.90;1.00
5802;DHT22;2927;49.366;8.530;2023-11-19T12:48:42;15.90;1.00
5802;DHT22;2927;49.366;8.530;2023-11-19T12:51:08;15.90;1.00
5802;DHT22;2927;49.366;8.530;2023-11-19T12:53:53;15.80;1.00
5802;DHT22;2927;49.366;8.530;2023-11-19T12:56:24;15.80;1.00
5802;DHT22;2927;49.366;8.530;2023-11-19T12:58:49;15.60;99.90
5802;DHT22;2927;49.366;8.530;2023-11-19T13:01:19;15.60;1.00
5802;DHT22;2927;49.366;8.530;2023-11-19T13:03:46;15.60;1.00
5802;DHT22;2927;49.366;8.530;2023-11-19T13:06:13;15.40;1.00
5802;DHT22;2927;49.366;8.530;2023-11-19T13:08:41;15.20;1.00
5802;DHT22;2927;49.366;8.530;2023-11-19T13:11:09;15.20;1.00
5802;DHT22;2927;49.366;8.530;2023-11-19T13:13:58;15.20;99.90
5802;DHT22;2927;49.366;8.530;2023-11-19T13:16:29;15.10;1.00
5802;DHT22;2927;49.366;8.530;2023-11-19T13:18:55;14.90;99.90
5802;DHT22;2927;49.366;8.530;2023-11-19T13:21:23;14.70;1.00
5802;DHT22;2927;49.366;8.530;2023-11-19T13:23:48;14.70;1.00
5802;DHT22;2927;49.366;8.530;2023-11-19T13:26:14;14.60;1.00
5802;DHT22;2927;49.366;8.530;2023-11-19T13:28:39;14.50;1.00
5802;DHT22;2927;49.366;8.530;2023-11-19T13:31:06;14.50;1.00
5802;DHT22;2927;49.366;8.530;2023-11-19T13:33:31;14.40;1.00
5802;DHT22;2927;49.366;8.530;2023-11-19T13:35:57;14.30;99.90
5802;DHT22;2927;49.366;8.530;2023-11-19T13:38:27;14.20;1.00
5802;DHT22;2927;49.366;8.530;2023-11-19T13:40:52;14.20;1.00
5802;DHT22;2927;49.366;8.530;2023-11-19T13:43:18;14.10;99.90
5802;DHT22;2927;49.366;8.530;2023-11-19T13:45:43;14.20;99.90
5802;DHT22;2927;49.366;8.530;2023-11-19T13:48:10;14.20;99.90
5802;DHT22;2927;49.366;8.530;2023-11-19T13:50:36;14.20;1.00
5802;DHT22;2927;49.366;8.530;2023-11-19T13:53:01;14.20;99.90
5802;DHT22;2927;49.366;8.530;2023-11-19T13:55:27;14.20;1.00
5802;DHT22;2927;49.366;8.530;2023-11-19T13:57:53;14.10;99.90
5802;DHT22;2927;49.366;8.530;2023-11-19T14:00:18;14.00;89.30
5802;DHT22;2927;49.366;8.530;2023-11-19T14:02:48;14.00;1.00
5802;DHT22;2927;49.366;8.530;2023-11-19T14:05:15;14.00;99.90
5802;DHT22;2927;49.366;8.530;2023-11-19T14:07:43;13.90;99.90
5802;DHT22;2927;49.366;8.530;2023-11-19T14:10:09;13.90;99.90
5802;DHT22;2927;49.366;8.530;2023-11-19T14:12:37;13.90;1.00
5802;DHT22;2927;49.366;8.530;2023-11-19T14:15:04;13.80;1.00
5802;DHT22;2927;49.366;8.530;2023-11-19T14:17:31;13.80;1.00
5802;DHT22;2927;49.366;8.530;2023-11-19T14:19:57;13.80;1.00
5802;DHT22;2927;49.366;8.530;2023-11-19T14:22:23;13.80;1.00
5802;DHT22;2927;49.366;8.530;2023-11-19T14:24:50;13.70;1.00
5802;DHT22;2927;49.366;8.530;2023-11-19T14:27:15;13.70;1.00
5802;DHT22;2927;49.366;8.530;2023-11-19T14:29:42;13.80;1.00
5802;DHT22;2927;49.366;8.530;2023-11-19T14:32:08;13.80;1.00
5802;DHT22;2927;49.366;8.530;2023-11-19T14:34:34;13.90;1.00
5802;DHT22;2927;49.366;8.530;2023-11-19T14:36:59;13.90;1.00
5802;DHT22;2927;49.366;8.530;2023-11-19T14:39:26;13.90;1.00
5802;DHT22;2927;49.366;8.530;2023-11-19T14:41:51;14.00;1.00
5802;DHT22;2927;49.366;8.530;2023-11-19T14:44:18;14.00;1.00
5802;DHT22;2927;49.366;8.530;2023-11-19T14:46:45;14.10;1.00
5802;DHT22;2927;49.366;8.530;2023-11-19T14:49:11;14.10;1.00
5802;DHT22;2927;49.366;8.530;2023-11-19T14:51:37;14.00;1.00
5802;DHT22;2927;49.366;8.530;2023-11-19T14:54:04;14.00;99.90
5802;DHT22;2927;49.366;8.530;2023-11-19T14:56:30;14.00;66.10
5802;DHT22;2927;49.366;8.530;2023-11-19T14:58:55;14.00;1.00
5802;DHT22;2927;49.366;8.530;2023-11-19T15:01:21;14.00;1.00
5802;DHT22;2927;49.366;8.530;2023-11-19T15:03:47;13.90;1.00
5802;DHT22;2927;49.366;8.530;2023-11-19T15:06:12;13.90;1.00
5802;DHT22;2927;49.366;8.530;2023-11-19T15:08:38;14.00;99.90
5802;DHT22;2927;49.366;8.530;2023-11-19T15:11:04;14.00;99.90
5802;DHT22;2927;49.366;8.530;2023-11-19T15:13:31;14.00;1.00
5802;DHT22;2927;49.366;8.530;2023-11-19T15:15:58;14.00;1.00
5802;DHT22;2927;49.366;8.530;2023-11-19T15:18:23;14.00;1.00
5802;DHT22;2927;49.366;8.530;2023-11-19T15:20:49;14.00;1.00
5802;DHT22;2927;49.366;8.530;2023-11-19T15:23:15;13.90;1.00
5802;DHT22;2927;49.366;8.530;2023-11-19T15:25:41;13.80;1.00
5802;DHT22;2927;49.366;8.530;2023-11-19T15:28:06;13.70;1.00
5802;DHT22;2927;49.366;8.530;2023-11-19T15:30:32;13.70;1.00
5802;DHT22;2927;49.366;8.530;2023-11-19T15:32:58;13.60;1.00
5802;DHT22;2927;49.366;8.530;2023-11-19T15:35:23;13.60;35.20
5802;DHT22;2927;49.366;8.530;2023-11-19T15:37:49;13.50;99.90
5802;DHT22;2927;49.366;8.530;2023-11-19T15:40:15;13.40;99.90
5802;DHT22;2927;49.366;8.530;2023-11-19T15:42:41;13.50;1.00
5802;DHT22;2927;49.366;8.530;2023-11-19T15:45:09;13.40;88.90
5802;DHT22;2927;49.366;8.530;2023-11-19T15:47:35;13.20;1.00
5802;DHT22;2927;49.366;8.530;2023-11-19T15:50:01;13.10;1.00
5802;DHT22;2927;49.366;8.530;2023-11-19T15:52:28;13.00;1.00
5802;DHT22;2927;49.366;8.530;2023-11-19T15:54:55;12.90;1.00
5802;DHT22;2927;49.366;8.530;2023-11-19T15:57:21;12.80;99.90
5802;DHT22;2927;49.366;8.530;2023-11-19T15:59:47;12.70;1.00
5802;DHT22;2927;49.366;8.530;2023-11-19T16:02:13;12.70;1.00
5802;DHT22;2927;49.366;8.530;2023-11-19T16:04:39;12.60;99.90
5802;DHT22;2927;49.366;8.530;2023-11-19T16:07:06;12.60;99.90
5802;DHT22;2927;49.366;8.530;2023-11-19T16:09:32;12.60;1.00
5802;DHT22;2927;49.366;8.530;2023-11-19T16:11:58;12.60;1.00
5802;DHT22;2927;49.366;8.530;2023-11-19T16:14:24;12.60;99.90
5802;DHT22;2927;49.366;8.530;2023-11-19T16:16:49;12.70;1.00
5802;DHT22;2927;49.366;8.530;2023-11-19T16:19:16;12.70;99.90
5802;DHT22;2927;49.366;8.530;2023-11-19T16:21:42;12.70;99.90
5802;DHT22;2927;49.366;8.530;2023-11-19T16:24:08;12.80;1.00
5802;DHT22;2927;49.366;8.530;2023-11-19T16:26:34;12.80;1.00
5802;DHT22;2927;49.366;8.530;2023-11-19T16:29:02;12.80;1.00